Time;durP1;ratioP1;P1;durP2;ratioP2;P2;SDS_P1;SDS_P2;PMS_P1;PMS_P2;Temp;Humidity;BMP_temperature;BMP_pressure;BME280_temperature;BME280_humidity;BME280_pressure;Samples;Min_cycle;Max_cycle;Signal;HPM_P1;HPM_P2
2022/04/17 00:01:12;;;;;;;1.53;1.23;;;;;;;;;;5103505;28;20543;-70
2022/04/17 00:03:39;;;;;;;2.00;1.00;;;;;;;;;;5102245;28;20770;-69
2022/04/17 00:06:07;;;;;;;1.80;1.40;;;;;;;;;;5106007;28;20448;-68
2022/04/17 00:08:34;;;;;;;2.37;1.93;;;;;;;;;;5103036;28;20470;-69
2022/04/17 00:11:03;;;;;;;1.35;1.20;;;;;;;;;;5096897;28;20475;-69
2022/04/17 00:13:30;;;;;;;1.33;1.23;;;;;;;;;;5098338;28;20204;-68
2022/04/17 00:15:57;;;;;;;2.77;2.00;;;;;;;;;;5104227;28;20538;-69
2022/04/17 00:18:24;;;;;;;2.03;1.60;;;;;;;;;;5103156;28;20455;-68
2022/04/17 00:20:51;;;;;;;1.20;0.98;;;;;;;;;;5097358;28;20447;-68
2022/04/17 00:23:19;;;;;;;1.10;1.00;;;;;;;;;;5096946;28;20567;-68
2022/04/17 00:25:46;;;;;;;1.63;0.93;;;;;;;;;;5104549;28;20447;-68
2022/04/17 00:28:14;;;;;;;1.73;1.50;;;;;;;;;;5103529;28;20484;-68
2022/04/17 00:30:41;;;;;;;1.07;0.97;;;;;;;;;;5090415;28;20484;-69
2022/04/17 00:33:09;;;;;;;1.10;1.00;;;;;;;;;;5103897;28;20804;-68
2022/04/17 00:35:36;;;;;;;1.30;1.20;;;;;;;;;;5103833;28;20966;-68
2022/04/17 00:38:04;;;;;;;1.17;0.93;;;;;;;;;;5090936;28;20454;-68
2022/04/17 00:40:31;;;;;;;1.43;1.33;;;;;;;;;;5105999;28;20546;-68
2022/04/17 00:42:59;;;;;;;2.93;1.40;;;;;;;;;;5108180;28;20551;-69
2022/04/17 00:45:28;;;;;;;0.90;0.90;;;;;;;;;;5101956;28;20800;-68
2022/04/17 00:47:55;;;;;;;1.35;1.08;;;;;;;;;;5101287;28;20453;-69
2022/04/17 00:50:22;;;;;;;1.50;1.38;;;;;;;;;;5105246;28;20625;-68
2022/04/17 00:52:49;;;;;;;1.47;1.17;;;;;;;;;;5108286;28;20201;-69
2022/04/17 00:55:17;;;;;;;0.90;0.80;;;;;;;;;;5102776;28;20567;-68
2022/04/17 00:57:45;;;;;;;0.90;0.90;;;;;;;;;;5101175;28;20454;-68
2022/04/17 01:00:13;;;;;;;2.23;1.30;;;;;;;;;;5104429;28;20487;-68
2022/04/17 01:02:41;;;;;;;2.25;1.13;;;;;;;;;;5107557;28;20490;-68
2022/04/17 01:05:09;;;;;;;1.42;1.30;;;;;;;;;;5101684;28;20650;-68
2022/04/17 01:07:36;;;;;;;1.58;1.25;;;;;;;;;;5107729;28;20728;-69
2022/04/17 01:10:04;;;;;;;1.30;1.20;;;;;;;;;;5103865;28;20197;-69
2022/04/17 01:12:31;;;;;;;0.82;0.82;;;;;;;;;;5100506;28;20532;-69
2022/04/17 01:15:00;;;;;;;2.08;1.05;;;;;;;;;;5103901;28;20208;-69
2022/04/17 01:17:27;;;;;;;1.30;1.20;;;;;;;;;;5106622;28;20289;-69
2022/04/17 01:19:55;;;;;;;2.00;1.33;;;;;;;;;;5104551;28;20463;-69
2022/04/17 01:22:25;;;;;;;1.70;1.50;;;;;;;;;;5099743;28;20451;-69
2022/04/17 01:27:37;;;;;;;1.73;1.03;;;;;;;;;;5101679;28;20430;-68
2022/04/17 01:30:04;;;;;;;1.10;1.00;;;;;;;;;;5100159;28;20449;-68
2022/04/17 01:32:31;;;;;;;2.13;1.20;;;;;;;;;;5105647;28;20979;-70
2022/04/17 01:34:59;;;;;;;1.27;1.00;;;;;;;;;;5096699;28;20448;-69
2022/04/17 01:37:27;;;;;;;0.90;0.90;;;;;;;;;;5104890;28;20853;-69
2022/04/17 01:39:54;;;;;;;1.20;1.10;;;;;;;;;;5106635;28;20479;-69
2022/04/17 01:42:21;;;;;;;2.13;1.37;;;;;;;;;;5102137;28;20530;-69
2022/04/17 01:44:51;;;;;;;1.30;1.20;;;;;;;;;;5099773;28;20491;-69
2022/04/17 01:47:18;;;;;;;1.63;0.90;;;;;;;;;;5103543;28;20449;-69
2022/04/17 01:49:45;;;;;;;2.30;1.17;;;;;;;;;;5106228;28;20484;-69
2022/04/17 01:52:12;;;;;;;1.37;1.27;;;;;;;;;;5102305;28;20558;-69
2022/04/17 01:54:41;;;;;;;1.63;1.53;;;;;;;;;;5099932;28;20480;-69
2022/04/17 01:57:08;;;;;;;1.10;0.97;;;;;;;;;;5102363;28;20455;-69
2022/04/17 01:59:35;;;;;;;2.30;1.00;;;;;;;;;;5106396;28;20455;-68
2022/04/17 02:02:02;;;;;;;1.40;1.00;;;;;;;;;;5104392;28;20476;-69
2022/04/17 02:04:35;;;;;;;1.55;1.40;;;;;;;;;;5102567;28;20516;-69
2022/04/17 02:07:02;;;;;;;0.70;0.67;;;;;;;;;;5105512;28;20198;-69
2022/04/17 02:09:29;;;;;;;1.40;1.30;;;;;;;;;;5098847;28;20556;-68
2022/04/17 02:11:58;;;;;;;1.45;0.93;;;;;;;;;;5100971;28;20531;-68
2022/04/17 02:14:25;;;;;;;1.80;1.40;;;;;;;;;;5106153;28;20258;-69
2022/04/17 02:16:52;;;;;;;1.17;0.90;;;;;;;;;;5106011;28;20481;-69
2022/04/17 02:19:20;;;;;;;1.07;0.80;;;;;;;;;;5098982;28;20542;-68
2022/04/17 02:21:47;;;;;;;1.40;1.27;;;;;;;;;;5099503;28;20783;-68
2022/04/17 02:24:15;;;;;;;1.27;1.00;;;;;;;;;;5099199;28;20443;-68
2022/04/17 02:26:42;;;;;;;3.07;1.37;;;;;;;;;;5099733;28;20444;-68
2022/04/17 02:29:10;;;;;;;1.20;1.10;;;;;;;;;;5105130;28;20480;-68
2022/04/17 02:31:37;;;;;;;1.67;1.17;;;;;;;;;;5105428;28;20527;-68
2022/04/17 02:34:05;;;;;;;1.30;1.20;;;;;;;;;;5094114;28;20480;-68
2022/04/17 02:36:33;;;;;;;1.40;1.30;;;;;;;;;;5096486;28;20472;-69
2022/04/17 02:39:00;;;;;;;2.70;1.70;;;;;;;;;;5109767;28;20447;-69
2022/04/17 02:41:27;;;;;;;1.85;1.35;;;;;;;;;;5105994;28;20552;-69
2022/04/17 02:43:54;;;;;;;2.60;1.20;;;;;;;;;;5095497;28;20605;-68
2022/04/17 02:49:07;;;;;;;1.93;1.67;;;;;;;;;;5100180;28;20424;-69
2022/04/17 02:51:35;;;;;;;1.13;1.02;;;;;;;;;;5105600;28;20486;-68
2022/04/17 02:54:02;;;;;;;1.30;1.20;;;;;;;;;;5092879;28;20200;-68
2022/04/17 02:56:29;;;;;;;2.13;1.53;;;;;;;;;;5104965;28;20234;-68
2022/04/17 02:58:56;;;;;;;2.20;1.57;;;;;;;;;;5104573;28;20893;-68
2022/04/17 03:06:55;;;;;;;3.60;1.30;;;;;;;;;;5102630;28;20439;-68
2022/04/17 03:09:23;;;;;;;2.07;1.47;;;;;;;;;;5097904;28;20450;-68
2022/04/17 03:11:50;;;;;;;2.53;1.07;;;;;;;;;;5102691;28;20479;-72
2022/04/17 03:14:17;;;;;;;1.03;0.93;;;;;;;;;;5096163;28;20448;-67
2022/04/17 03:16:46;;;;;;;0.80;0.60;;;;;;;;;;5094136;28;20531;-68
2022/04/17 03:19:13;;;;;;;1.20;0.97;;;;;;;;;;5098296;28;20444;-68
2022/04/17 03:21:40;;;;;;;1.20;1.10;;;;;;;;;;5099539;28;20543;-69
2022/04/17 03:24:08;;;;;;;1.07;0.97;;;;;;;;;;5102232;28;20192;-70
2022/04/17 03:26:36;;;;;;;1.17;1.08;;;;;;;;;;5099520;28;20448;-71
2022/04/17 03:29:04;;;;;;;2.53;1.20;;;;;;;;;;5105149;28;20223;-70
2022/04/17 03:31:31;;;;;;;2.03;1.43;;;;;;;;;;5104153;28;20864;-70
2022/04/17 03:34:00;;;;;;;2.37;2.17;;;;;;;;;;5093520;28;20869;-71
2022/04/17 03:36:27;;;;;;;1.40;1.03;;;;;;;;;;5098460;28;20467;-70
2022/04/17 03:38:54;;;;;;;3.03;1.43;;;;;;;;;;5103173;28;20448;-70
2022/04/17 03:41:22;;;;;;;1.75;1.20;;;;;;;;;;5107143;28;20460;-70
2022/04/17 03:43:49;;;;;;;2.50;1.90;;;;;;;;;;5099822;28;20200;-68
2022/04/17 03:46:16;;;;;;;1.00;0.77;;;;;;;;;;5096566;28;20455;-69
2022/04/17 03:48:43;;;;;;;1.57;1.20;;;;;;;;;;5096528;28;20445;-69
2022/04/17 03:51:12;;;;;;;1.30;1.00;;;;;;;;;;5092033;28;20538;-69
2022/04/17 03:53:39;;;;;;;1.40;1.20;;;;;;;;;;5102909;28;20601;-69
2022/04/17 03:56:06;;;;;;;1.30;1.20;;;;;;;;;;5096674;28;20443;-69
2022/04/17 03:58:33;;;;;;;2.80;1.40;;;;;;;;;;5095771;28;20811;-69
2022/04/17 04:01:01;;;;;;;1.23;1.13;;;;;;;;;;5097625;28;20524;-69
2022/04/17 04:03:28;;;;;;;1.93;1.37;;;;;;;;;;5102996;28;20514;-69
2022/04/17 04:05:56;;;;;;;1.43;1.33;;;;;;;;;;5106147;28;20450;-71
2022/04/17 04:08:26;;;;;;;1.50;1.27;;;;;;;;;;5095301;28;20447;-70
2022/04/17 04:10:53;;;;;;;1.27;1.17;;;;;;;;;;5097285;28;20780;-69
2022/04/17 04:13:20;;;;;;;1.17;1.07;;;;;;;;;;5096956;28;20917;-69
2022/04/17 04:15:47;;;;;;;2.60;1.80;;;;;;;;;;5093892;28;21008;-69
2022/04/17 04:18:14;;;;;;;1.80;1.70;;;;;;;;;;5099211;28;20457;-69
2022/04/17 04:20:41;;;;;;;1.60;1.50;;;;;;;;;;5097782;28;20443;-69
2022/04/17 04:23:10;;;;;;;1.57;1.47;;;;;;;;;;5099786;28;20446;-70
2022/04/17 04:25:38;;;;;;;2.33;1.33;;;;;;;;;;5097070;28;20463;-70
2022/04/17 04:30:51;;;;;;;1.53;1.43;;;;;;;;;;5097462;28;20430;-69
2022/04/17 04:33:18;;;;;;;1.10;1.00;;;;;;;;;;5092336;28;20526;-70
2022/04/17 04:35:46;;;;;;;1.63;1.23;;;;;;;;;;5097849;28;20454;-70
2022/04/17 04:38:13;;;;;;;1.13;1.03;;;;;;;;;;5096676;28;20455;-69
2022/04/17 04:40:41;;;;;;;1.53;1.33;;;;;;;;;;5094500;28;20550;-70
2022/04/17 04:43:08;;;;;;;1.47;1.00;;;;;;;;;;5096238;28;20454;-69
2022/04/17 04:49:29;;;;;;;1.03;0.90;;;;;;;;;;5097366;28;20436;-70
2022/04/17 04:51:08;;;;;;;1.73;1.13;;;;;;;;;;5103024;28;20439;-69
2022/04/17 04:53:35;;;;;;;1.33;1.17;;;;;;;;;;5103672;28;20260;-69
2022/04/17 04:56:04;;;;;;;1.50;1.40;;;;;;;;;;5092911;28;20197;-72
2022/04/17 04:58:31;;;;;;;1.00;0.90;;;;;;;;;;5095445;28;20454;-71
2022/04/17 05:00:58;;;;;;;1.73;1.63;;;;;;;;;;5094237;28;20941;-70
2022/04/17 05:03:26;;;;;;;1.75;1.45;;;;;;;;;;5107867;28;20484;-70
2022/04/17 05:05:53;;;;;;;1.85;1.52;;;;;;;;;;5095093;28;20195;-70
2022/04/17 05:08:20;;;;;;;1.30;1.20;;;;;;;;;;5090656;28;20664;-69
2022/04/17 05:10:48;;;;;;;2.50;1.45;;;;;;;;;;5090702;28;20445;-70
2022/04/17 05:13:17;;;;;;;2.10;1.67;;;;;;;;;;5098330;28;20291;-69
2022/04/17 05:15:44;;;;;;;0.93;0.90;;;;;;;;;;5096141;28;20510;-69
2022/04/17 05:18:11;;;;;;;1.30;1.20;;;;;;;;;;5094660;28;20455;-68
2022/04/17 05:20:38;;;;;;;4.30;1.13;;;;;;;;;;5101386;28;20452;-69
2022/04/17 05:23:15;;;;;;;2.03;1.83;;;;;;;;;;5099433;28;20209;-69
2022/04/17 05:25:43;;;;;;;3.00;1.50;;;;;;;;;;5103813;28;20445;-69
2022/04/17 05:28:10;;;;;;;2.50;1.50;;;;;;;;;;5104234;28;20447;-69
2022/04/17 05:30:38;;;;;;;2.80;1.67;;;;;;;;;;5099631;28;20461;-70
2022/04/17 05:33:06;;;;;;;1.20;1.10;;;;;;;;;;5095722;28;20512;-68
2022/04/17 05:35:33;;;;;;;1.40;1.30;;;;;;;;;;5098907;28;20196;-71
2022/04/17 05:38:00;;;;;;;1.07;0.80;;;;;;;;;;5106423;28;20447;-71
2022/04/17 05:40:27;;;;;;;1.20;1.10;;;;;;;;;;5098792;28;20832;-71
2022/04/17 05:42:54;;;;;;;1.50;1.40;;;;;;;;;;5096925;28;20452;-72
2022/04/17 05:45:22;;;;;;;1.25;1.15;;;;;;;;;;5105792;28;20533;-70
2022/04/17 05:47:50;;;;;;;1.60;1.37;;;;;;;;;;5098505;28;20209;-70
2022/04/17 05:50:17;;;;;;;2.33;2.13;;;;;;;;;;5103710;28;20449;-70
2022/04/17 05:52:45;;;;;;;1.43;1.33;;;;;;;;;;5106705;28;20480;-71
2022/04/17 05:55:12;;;;;;;1.10;1.00;;;;;;;;;;5101167;28;20450;-71
2022/04/17 05:57:39;;;;;;;1.13;1.03;;;;;;;;;;5100293;28;20800;-70
2022/04/17 06:00:08;;;;;;;1.30;1.20;;;;;;;;;;5104820;28;20448;-70
2022/04/17 06:02:35;;;;;;;1.37;1.10;;;;;;;;;;5103692;28;20487;-70
2022/04/17 06:05:05;;;;;;;1.17;1.07;;;;;;;;;;5108793;28;20533;-71
2022/04/17 06:07:32;;;;;;;3.60;1.23;;;;;;;;;;5099908;28;20852;-70
2022/04/17 06:10:02;;;;;;;0.83;0.70;;;;;;;;;;5103571;28;20444;-71
2022/04/17 06:12:29;;;;;;;1.60;1.50;;;;;;;;;;5099466;28;20474;-70
2022/04/17 06:14:56;;;;;;;2.93;1.20;;;;;;;;;;5101977;28;21034;-70
2022/04/17 06:17:24;;;;;;;1.23;0.90;;;;;;;;;;5107842;28;20499;-70
2022/04/17 06:19:51;;;;;;;1.30;1.20;;;;;;;;;;5102175;28;20446;-71
2022/04/17 06:22:20;;;;;;;1.27;1.17;;;;;;;;;;5104807;28;20282;-70
2022/04/17 06:24:47;;;;;;;1.30;1.00;;;;;;;;;;5098217;28;20825;-70
2022/04/17 06:27:14;;;;;;;1.80;1.60;;;;;;;;;;5104567;28;20451;-70
2022/04/17 06:29:41;;;;;;;1.30;1.07;;;;;;;;;;5099196;28;20544;-69
2022/04/17 06:32:09;;;;;;;1.20;1.10;;;;;;;;;;5108428;28;20490;-70
2022/04/17 06:34:36;;;;;;;1.00;0.90;;;;;;;;;;5100262;28;20456;-70
2022/04/17 06:37:03;;;;;;;1.30;1.20;;;;;;;;;;5100064;28;20451;-69
2022/04/17 06:39:32;;;;;;;1.20;0.90;;;;;;;;;;5091654;28;20979;-71
2022/04/17 06:41:59;;;;;;;1.67;1.02;;;;;;;;;;5096752;28;20902;-70
2022/04/17 06:44:26;;;;;;;1.53;1.20;;;;;;;;;;5104359;28;20446;-70
2022/04/17 06:46:53;;;;;;;2.33;1.10;;;;;;;;;;5096477;28;20553;-71
2022/04/17 06:49:20;;;;;;;1.43;1.33;;;;;;;;;;5104858;28;20450;-71
2022/04/17 06:51:47;;;;;;;1.50;1.20;;;;;;;;;;5099896;28;20509;-71
2022/04/17 06:54:14;;;;;;;1.10;1.00;;;;;;;;;;5092283;28;20579;-70
2022/04/17 06:56:43;;;;;;;1.30;0.90;;;;;;;;;;5099548;28;20440;-70
2022/04/17 06:59:12;;;;;;;0.90;0.90;;;;;;;;;;5097596;28;20440;-70
2022/04/17 07:01:39;;;;;;;1.20;0.90;;;;;;;;;;5098715;28;20888;-69
2022/04/17 07:04:06;;;;;;;1.90;1.17;;;;;;;;;;5101489;28;20440;-70
2022/04/17 07:06:33;;;;;;;1.20;1.00;;;;;;;;;;5097867;28;20457;-70
2022/04/17 07:09:01;;;;;;;4.27;1.40;;;;;;;;;;5105568;28;20450;-71
2022/04/17 07:11:29;;;;;;;1.20;1.10;;;;;;;;;;5101501;28;20564;-70
2022/04/17 07:13:58;;;;;;;1.43;1.10;;;;;;;;;;5095474;28;20481;-71
2022/04/17 07:16:25;;;;;;;3.17;1.70;;;;;;;;;;5101968;28;20477;-71
2022/04/17 07:18:52;;;;;;;1.60;0.87;;;;;;;;;;5103531;28;20451;-71
2022/04/17 07:21:19;;;;;;;1.30;1.20;;;;;;;;;;5090585;28;20498;-72
2022/04/17 07:23:47;;;;;;;1.37;1.00;;;;;;;;;;5104700;28;20532;-71
2022/04/17 07:26:15;;;;;;;1.13;1.03;;;;;;;;;;5101827;28;20540;-72
2022/04/17 07:28:42;;;;;;;1.10;0.83;;;;;;;;;;5094079;28;20442;-71
2022/04/17 07:31:10;;;;;;;1.40;1.30;;;;;;;;;;5101411;28;20534;-72
2022/04/17 07:33:38;;;;;;;1.10;1.00;;;;;;;;;;5095353;28;20567;-73
2022/04/17 07:36:05;;;;;;;1.37;0.90;;;;;;;;;;5094033;28;20541;-71
2022/04/17 07:38:32;;;;;;;4.30;1.03;;;;;;;;;;5095381;28;20475;-71
2022/04/17 07:40:59;;;;;;;3.90;1.27;;;;;;;;;;5091853;28;20494;-71
2022/04/17 07:43:27;;;;;;;1.40;1.00;;;;;;;;;;5102075;28;20456;-71
2022/04/17 07:45:54;;;;;;;1.23;1.13;;;;;;;;;;5093372;28;20444;-71
2022/04/17 07:48:24;;;;;;;1.27;1.03;;;;;;;;;;5103328;28;20447;-71
2022/04/17 07:50:54;;;;;;;1.10;0.97;;;;;;;;;;5105859;28;20936;-69
2022/04/17 07:53:21;;;;;;;1.00;0.80;;;;;;;;;;5099943;28;20480;-69
2022/04/17 07:55:48;;;;;;;1.50;1.40;;;;;;;;;;5095331;28;20494;-69
2022/04/17 07:58:23;;;;;;;1.30;1.20;;;;;;;;;;5101474;28;20532;-70
2022/04/17 08:00:57;;;;;;;1.00;0.90;;;;;;;;;;5094548;28;20534;-70
2022/04/17 08:03:35;;;;;;;1.57;1.00;;;;;;;;;;5102056;28;20560;-72
2022/04/17 08:06:04;;;;;;;1.50;1.40;;;;;;;;;;5104275;28;20454;-71
2022/04/17 08:08:32;;;;;;;1.40;1.00;;;;;;;;;;5097259;28;20448;-69
2022/04/17 08:10:59;;;;;;;0.80;0.80;;;;;;;;;;5092973;28;20611;-68
2022/04/17 08:13:26;;;;;;;0.77;0.77;;;;;;;;;;5101258;28;20703;-69
2022/04/17 08:15:53;;;;;;;1.87;1.10;;;;;;;;;;5090944;28;20468;-71
2022/04/17 08:18:21;;;;;;;1.20;1.10;;;;;;;;;;5101742;28;20991;-72
2022/04/17 08:20:50;;;;;;;1.50;0.80;;;;;;;;;;5096628;28;20451;-71
2022/04/17 08:23:17;;;;;;;1.30;1.00;;;;;;;;;;5102740;28;20532;-71
2022/04/17 08:25:46;;;;;;;1.50;1.10;;;;;;;;;;5096810;28;20549;-70
2022/04/17 08:28:14;;;;;;;1.40;1.30;;;;;;;;;;5093841;28;20922;-70
2022/04/17 08:30:41;;;;;;;1.50;1.13;;;;;;;;;;5103150;28;20464;-72
2022/04/17 08:33:09;;;;;;;1.10;1.00;;;;;;;;;;5090763;28;20486;-70
2022/04/17 08:35:36;;;;;;;2.03;1.15;;;;;;;;;;5095579;28;20443;-70
2022/04/17 08:38:06;;;;;;;0.80;0.80;;;;;;;;;;5096074;28;20202;-70
2022/04/17 08:40:33;;;;;;;1.63;1.53;;;;;;;;;;5092824;28;20531;-69
2022/04/17 08:43:01;;;;;;;1.10;1.00;;;;;;;;;;5101689;28;20500;-72
2022/04/17 08:45:28;;;;;;;1.57;0.80;;;;;;;;;;5101129;28;20546;-68
2022/04/17 08:47:56;;;;;;;1.50;1.40;;;;;;;;;;5098829;28;20859;-71
2022/04/17 08:50:23;;;;;;;0.90;0.90;;;;;;;;;;5100898;28;20925;-72
2022/04/17 08:52:52;;;;;;;1.50;1.20;;;;;;;;;;5103840;28;20451;-71
2022/04/17 08:55:20;;;;;;;1.73;1.33;;;;;;;;;;5093773;28;20524;-72
2022/04/17 08:57:47;;;;;;;0.73;0.73;;;;;;;;;;5098393;28;20455;-73
2022/04/17 09:00:17;;;;;;;1.77;1.00;;;;;;;;;;5098298;28;20526;-73
2022/04/17 09:02:44;;;;;;;1.92;1.10;;;;;;;;;;5104818;28;20539;-73
2022/04/17 09:05:13;;;;;;;1.80;1.27;;;;;;;;;;5101420;28;20194;-73
2022/04/17 09:07:40;;;;;;;1.10;0.90;;;;;;;;;;5096736;28;20451;-73
2022/04/17 09:10:08;;;;;;;0.93;0.83;;;;;;;;;;5102001;28;20866;-74
2022/04/17 09:12:37;;;;;;;1.23;0.98;;;;;;;;;;5088955;28;20454;-73
2022/04/17 09:15:04;;;;;;;1.27;1.07;;;;;;;;;;5105154;28;20236;-73
2022/04/17 09:17:33;;;;;;;1.63;1.07;;;;;;;;;;5108051;28;20455;-72
2022/04/17 09:20:00;;;;;;;1.97;1.87;;;;;;;;;;5098174;28;20518;-71
2022/04/17 09:22:46;;;;;;;1.80;1.00;;;;;;;;;;5105406;28;20479;-72
2022/04/17 09:25:13;;;;;;;1.57;1.10;;;;;;;;;;5099779;28;20440;-72
2022/04/17 09:27:43;;;;;;;1.77;1.00;;;;;;;;;;5105670;28;20798;-72
2022/04/17 09:30:25;;;;;;;1.57;1.47;;;;;;;;;;5097047;28;20452;-72
2022/04/17 09:32:52;;;;;;;3.47;1.37;;;;;;;;;;5103874;28;20463;-72
2022/04/17 09:35:22;;;;;;;0.87;0.70;;;;;;;;;;5098376;28;20456;-72
2022/04/17 09:37:50;;;;;;;1.40;1.30;;;;;;;;;;5103228;28;20968;-72
2022/04/17 09:40:20;;;;;;;1.00;0.83;;;;;;;;;;5099298;28;20472;-72
2022/04/17 09:42:49;;;;;;;1.93;1.67;;;;;;;;;;5102925;28;20440;-72
2022/04/17 09:45:16;;;;;;;1.20;1.03;;;;;;;;;;5103966;28;20444;-72
2022/04/17 09:47:56;;;;;;;1.10;1.00;;;;;;;;;;5098041;28;20532;-72
2022/04/17 09:50:30;;;;;;;1.30;1.10;;;;;;;;;;5101162;28;20443;-73
2022/04/17 09:52:59;;;;;;;0.97;0.83;;;;;;;;;;5107944;28;20440;-73
2022/04/17 09:55:31;;;;;;;1.03;0.67;;;;;;;;;;5103804;28;20755;-72
2022/04/17 09:58:00;;;;;;;1.80;0.83;;;;;;;;;;5099018;28;20460;-72
2022/04/17 10:00:27;;;;;;;1.37;1.03;;;;;;;;;;5099102;28;20471;-72
2022/04/17 10:02:55;;;;;;;1.65;0.95;;;;;;;;;;5106678;28;20483;-72
2022/04/17 10:05:22;;;;;;;1.23;1.00;;;;;;;;;;5094792;28;20285;-72
2022/04/17 10:07:50;;;;;;;2.07;1.30;;;;;;;;;;5106689;28;20459;-72
2022/04/17 10:10:18;;;;;;;1.10;0.87;;;;;;;;;;5105020;28;20479;-72
2022/04/17 10:12:46;;;;;;;1.40;1.00;;;;;;;;;;5098767;28;20978;-72
2022/04/17 10:15:15;;;;;;;1.10;1.00;;;;;;;;;;5107871;28;20486;-73
2022/04/17 10:17:46;;;;;;;1.20;1.10;;;;;;;;;;5099780;28;20787;-72
2022/04/17 10:20:14;;;;;;;4.03;1.52;;;;;;;;;;5103053;28;20903;-71
2022/04/17 10:22:42;;;;;;;1.17;0.93;;;;;;;;;;5099481;28;20288;-71
2022/04/17 10:25:10;;;;;;;2.23;1.20;;;;;;;;;;5106316;28;20532;-74
2022/04/17 10:27:40;;;;;;;4.93;1.10;;;;;;;;;;5101023;28;20456;-73
2022/04/17 10:30:08;;;;;;;2.00;1.10;;;;;;;;;;5099135;28;20839;-72
2022/04/17 10:32:51;;;;;;;1.20;1.07;;;;;;;;;;5096552;28;20456;-72
2022/04/17 10:35:21;;;;;;;0.70;0.70;;;;;;;;;;5097556;28;20472;-73
2022/04/17 10:38:19;;;;;;;1.17;0.90;;;;;;;;;;5100796;28;20460;-72
2022/04/17 10:40:51;;;;;;;1.10;0.93;;;;;;;;;;5097594;28;20452;-73
2022/04/17 10:43:18;;;;;;;1.07;0.97;;;;;;;;;;5095946;28;20466;-73
2022/04/17 10:46:03;;;;;;;1.10;1.00;;;;;;;;;;5104419;28;20532;-72
2022/04/17 10:48:32;;;;;;;1.80;0.83;;;;;;;;;;5079293;28;20487;-73
2022/04/17 10:50:59;;;;;;;1.20;0.90;;;;;;;;;;5093288;28;20578;-73
2022/04/17 10:53:27;;;;;;;1.40;0.90;;;;;;;;;;5097397;28;20954;-73
2022/04/17 10:56:03;;;;;;;1.10;0.80;;;;;;;;;;5098830;28;20733;-72
2022/04/17 10:58:37;;;;;;;1.00;0.80;;;;;;;;;;5108266;28;20447;-71
2022/04/17 11:01:04;;;;;;;1.43;1.07;;;;;;;;;;5098715;28;20444;-72
2022/04/17 11:03:35;;;;;;;0.83;0.73;;;;;;;;;;5102956;28;20552;-72
2022/04/17 11:06:18;;;;;;;0.80;0.77;;;;;;;;;;5094311;28;20449;-71
2022/04/17 11:08:51;;;;;;;0.82;0.63;;;;;;;;;;5099187;28;20186;-73
2022/04/17 11:11:18;;;;;;;1.77;1.03;;;;;;;;;;5098588;28;20265;-73
2022/04/17 11:14:00;;;;;;;1.10;0.70;;;;;;;;;;5099400;28;20577;-73
2022/04/17 11:16:28;;;;;;;1.00;0.70;;;;;;;;;;5101572;28;20528;-71
2022/04/17 11:18:57;;;;;;;1.77;0.88;;;;;;;;;;5101625;28;20439;-72
2022/04/17 11:21:25;;;;;;;1.13;1.00;;;;;;;;;;5106695;28;20198;-72
2022/04/17 11:24:02;;;;;;;1.60;0.82;;;;;;;;;;5097898;28;20501;-72
2022/04/17 11:26:47;;;;;;;0.70;0.70;;;;;;;;;;5100076;28;20198;-72
2022/04/17 11:29:15;;;;;;;1.40;0.97;;;;;;;;;;5095374;28;20447;-72
2022/04/17 11:31:42;;;;;;;1.03;0.97;;;;;;;;;;5104438;28;20530;-72
2022/04/17 11:34:10;;;;;;;1.20;0.80;;;;;;;;;;5111137;28;20511;-72
2022/04/17 11:36:38;;;;;;;2.13;0.90;;;;;;;;;;5107672;28;20931;-74
2022/04/17 11:39:05;;;;;;;0.70;0.60;;;;;;;;;;5091307;28;20447;-73
2022/04/17 11:41:33;;;;;;;1.33;0.90;;;;;;;;;;5093162;28;20452;-72
2022/04/17 11:44:01;;;;;;;1.10;1.00;;;;;;;;;;5101739;28;20540;-73
2022/04/17 11:46:29;;;;;;;0.70;0.60;;;;;;;;;;5104461;28;20448;-74
2022/04/17 11:48:56;;;;;;;0.83;0.63;;;;;;;;;;5095847;28;21241;-74
2022/04/17 11:51:25;;;;;;;1.13;0.83;;;;;;;;;;5090550;28;20476;-74
2022/04/17 11:53:52;;;;;;;1.63;0.70;;;;;;;;;;5099724;28;20476;-73
2022/04/17 11:56:19;;;;;;;0.70;0.70;;;;;;;;;;5103856;28;20491;-71
2022/04/17 11:58:48;;;;;;;1.13;0.70;;;;;;;;;;5090837;28;20461;-70
2022/04/17 12:01:24;;;;;;;0.80;0.77;;;;;;;;;;5095121;28;20460;-70
2022/04/17 12:03:55;;;;;;;1.33;0.90;;;;;;;;;;5097557;28;20472;-69
2022/04/17 12:06:28;;;;;;;1.00;0.90;;;;;;;;;;5097274;28;20934;-69
2022/04/17 12:08:56;;;;;;;1.63;1.10;;;;;;;;;;5097381;28;20535;-72
2022/04/17 12:11:23;;;;;;;1.10;1.00;;;;;;;;;;5100500;28;20541;-68
2022/04/17 12:13:55;;;;;;;0.80;0.63;;;;;;;;;;5098065;28;20203;-73
2022/04/17 12:16:22;;;;;;;1.10;0.70;;;;;;;;;;5100095;28;20446;-73
2022/04/17 12:18:54;;;;;;;1.03;0.93;;;;;;;;;;5095499;28;20527;-71
2022/04/17 12:21:29;;;;;;;1.00;0.77;;;;;;;;;;5100209;28;20432;-70
2022/04/17 12:23:57;;;;;;;1.33;1.07;;;;;;;;;;5104227;28;20435;-74
2022/04/17 12:26:24;;;;;;;1.30;0.87;;;;;;;;;;5098541;28;20890;-73
2022/04/17 12:28:52;;;;;;;1.17;1.07;;;;;;;;;;5094836;28;20532;-73
2022/04/17 12:31:19;;;;;;;2.63;1.10;;;;;;;;;;5099783;28;20448;-74
2022/04/17 12:33:47;;;;;;;1.20;1.10;;;;;;;;;;5091755;28;20543;-72
2022/04/17 12:36:15;;;;;;;1.67;1.00;;;;;;;;;;5092999;28;20532;-72
2022/04/17 12:38:43;;;;;;;1.80;1.00;;;;;;;;;;5099815;28;20668;-72
2022/04/17 12:41:22;;;;;;;1.10;1.00;;;;;;;;;;5101943;28;20877;-72
2022/04/17 12:43:50;;;;;;;2.30;0.93;;;;;;;;;;5102442;28;20443;-72
2022/04/17 12:46:25;;;;;;;0.90;0.70;;;;;;;;;;5101011;28;20455;-72
2022/04/17 12:49:02;;;;;;;1.17;0.90;;;;;;;;;;5105649;28;20801;-71
2022/04/17 12:51:30;;;;;;;1.15;0.80;;;;;;;;;;5107759;28;20198;-72
2022/04/17 12:53:57;;;;;;;2.30;1.40;;;;;;;;;;5105224;28;20219;-72
2022/04/17 12:56:27;;;;;;;1.23;0.80;;;;;;;;;;5100500;28;20458;-73
2022/04/17 12:58:56;;;;;;;1.00;0.80;;;;;;;;;;5103046;28;20543;-73
2022/04/17 13:01:24;;;;;;;1.07;0.97;;;;;;;;;;5106940;28;20954;-71
2022/04/17 13:03:51;;;;;;;1.37;1.17;;;;;;;;;;5105838;28;20562;-72
2022/04/17 13:06:20;;;;;;;0.95;0.75;;;;;;;;;;5108640;28;20528;-71
2022/04/17 13:09:02;;;;;;;0.97;0.80;;;;;;;;;;5106673;28;20606;-71
2022/04/17 13:11:33;;;;;;;1.17;0.60;;;;;;;;;;5101694;28;20458;-72
2022/04/17 13:14:03;;;;;;;1.02;0.73;;;;;;;;;;5100675;28;20547;-74
2022/04/17 13:16:30;;;;;;;0.90;0.80;;;;;;;;;;5104342;28;20195;-71
2022/04/17 13:18:58;;;;;;;0.60;0.60;;;;;;;;;;5107422;28;20531;-72
2022/04/17 13:21:25;;;;;;;1.20;1.10;;;;;;;;;;5103822;28;20435;-73
2022/04/17 13:23:52;;;;;;;3.37;1.00;;;;;;;;;;5100273;28;20475;-72
2022/04/17 13:26:21;;;;;;;1.50;0.90;;;;;;;;;;5103053;28;20531;-72
2022/04/17 13:28:49;;;;;;;1.23;0.93;;;;;;;;;;5107054;28;20449;-72
2022/04/17 13:31:16;;;;;;;1.23;0.73;;;;;;;;;;5104257;28;20531;-71
2022/04/17 13:33:44;;;;;;;0.93;0.70;;;;;;;;;;5097551;28;20448;-72
2022/04/17 13:36:11;;;;;;;0.80;0.80;;;;;;;;;;5104665;28;20233;-72
2022/04/17 13:38:37;;;;;;;1.53;1.07;;;;;;;;;;5099960;28;20444;-71
2022/04/17 13:41:06;;;;;;;2.00;0.60;;;;;;;;;;5102448;28;20452;-72
2022/04/17 13:43:33;;;;;;;0.77;0.77;;;;;;;;;;5107072;28;20449;-71
2022/04/17 13:46:01;;;;;;;1.97;0.80;;;;;;;;;;5106163;28;20451;-72
2022/04/17 13:48:30;;;;;;;1.83;1.00;;;;;;;;;;5098128;28;20481;-71
2022/04/17 13:50:58;;;;;;;0.80;0.70;;;;;;;;;;5100974;28;20448;-71
2022/04/17 13:53:25;;;;;;;1.70;1.60;;;;;;;;;;5106117;28;20873;-71
2022/04/17 13:55:52;;;;;;;0.60;0.60;;;;;;;;;;5106562;28;20578;-71
2022/04/17 13:58:20;;;;;;;0.80;0.70;;;;;;;;;;5098821;28;20241;-71
2022/04/17 14:00:47;;;;;;;0.88;0.82;;;;;;;;;;5100021;28;20448;-72
2022/04/17 14:03:15;;;;;;;0.83;0.83;;;;;;;;;;5107581;28;20231;-71
2022/04/17 14:05:43;;;;;;;1.17;0.80;;;;;;;;;;5099948;28;20453;-71
2022/04/17 14:08:10;;;;;;;0.90;0.73;;;;;;;;;;5105625;28;20448;-72
2022/04/17 14:10:38;;;;;;;1.63;1.00;;;;;;;;;;5106221;28;20450;-72
2022/04/17 14:13:05;;;;;;;1.23;0.70;;;;;;;;;;5100893;28;20448;-72
2022/04/17 14:15:32;;;;;;;0.80;0.80;;;;;;;;;;5099708;28;20229;-72
2022/04/17 14:17:59;;;;;;;1.05;0.75;;;;;;;;;;5104665;28;20444;-71
2022/04/17 14:20:28;;;;;;;1.37;0.70;;;;;;;;;;5105442;28;20210;-71
2022/04/17 14:22:55;;;;;;;1.10;0.70;;;;;;;;;;5101773;28;20447;-72
2022/04/17 14:25:23;;;;;;;0.80;0.67;;;;;;;;;;5099268;28;20868;-71
2022/04/17 14:27:50;;;;;;;1.10;0.97;;;;;;;;;;5103102;28;20456;-71
2022/04/17 14:30:17;;;;;;;1.40;0.90;;;;;;;;;;5105302;28;20518;-72
2022/04/17 14:32:44;;;;;;;1.77;0.82;;;;;;;;;;5102601;28;20487;-73
2022/04/17 14:35:11;;;;;;;0.88;0.75;;;;;;;;;;5108192;28;20237;-72
2022/04/17 14:37:40;;;;;;;1.03;0.60;;;;;;;;;;5092272;28;20191;-73
2022/04/17 14:40:08;;;;;;;0.87;0.60;;;;;;;;;;5105249;28;20844;-69
2022/04/17 14:42:35;;;;;;;1.00;0.70;;;;;;;;;;5103721;28;20526;-71
2022/04/17 14:45:02;;;;;;;0.80;0.80;;;;;;;;;;5098809;28;20448;-71
2022/04/17 14:47:29;;;;;;;1.67;1.23;;;;;;;;;;5100475;28;20922;-71
2022/04/17 14:49:57;;;;;;;0.80;0.63;;;;;;;;;;5105164;28;21064;-71
2022/04/17 14:52:24;;;;;;;0.70;0.70;;;;;;;;;;5103518;28;20818;-71
2022/04/17 14:54:52;;;;;;;0.88;0.70;;;;;;;;;;5098340;28;20566;-72
2022/04/17 14:57:20;;;;;;;1.13;0.93;;;15.90;99.90;;;;;;5099588;28;20232;-72
2022/04/17 14:59:47;;;;;;;2.30;0.93;;;22.30;1.00;;;;;;5104987;28;20449;-72
2022/04/17 15:02:13;;;;;;;2.30;0.90;;;22.70;1.00;;;;;;5103541;28;20478;-72
2022/04/17 15:04:40;;;;;;;1.57;0.90;;;23.10;1.00;;;;;;5101582;28;20956;-72